Time;durP1;ratioP1;P1;durP2;ratioP2;P2;SDS_P1;SDS_P2;PMS_P1;PMS_P2;Temp;Humidity;BMP_temperature;BMP_pressure;BME280_temperature;BME280_humidity;BME280_pressure;Samples;Min_cycle;Max_cycle;Signal;HPM_P1;HPM_P2
2023/03/28 00:00:31;;;;;;;23.25;4.90;;;;;;;;;;5035652;28;20049;-73
2023/03/28 00:02:58;;;;;;;26.77;4.93;;;;;;;;;;5037600;28;20078;-73
2023/03/28 00:05:24;;;;;;;19.60;4.20;;;;;;;;;;5039817;28;20027;-74
2023/03/28 00:07:51;;;;;;;20.83;3.80;;;;;;;;;;5035249;28;20386;-73
2023/03/28 00:10:17;;;;;;;17.38;3.97;;;;;;;;;;5037664;28;20031;-73
2023/03/28 00:12:43;;;;;;;25.20;5.93;;;;;;;;;;5036890;28;20776;-73
2023/03/28 00:15:10;;;;;;;24.45;4.10;;;;;;;;;;5035556;28;20029;-73
2023/03/28 00:17:36;;;;;;;19.00;5.70;;;;;;;;;;5036678;28;20029;-73
2023/03/28 00:20:09;;;;;;;39.78;5.38;;;;;;;;;;5040380;28;20385;-73
2023/03/28 00:22:37;;;;;;;25.95;4.00;;;;;;;;;;5035801;28;20519;-73
2023/03/28 00:25:05;;;;;;;37.97;6.10;;;;;;;;;;5038489;28;20059;-73
2023/03/28 00:27:32;;;;;;;27.40;5.15;;;;;;;;;;5033520;28;20060;-73
2023/03/28 00:29:58;;;;;;;28.70;5.57;;;;;;;;;;5041228;28;20042;-73
2023/03/28 00:32:25;;;;;;;25.10;4.68;;;;;;;;;;5039718;28;20072;-73
2023/03/28 00:34:51;;;;;;;19.67;4.18;;;;;;;;;;5036961;28;20493;-74
2023/03/28 00:37:17;;;;;;;25.15;4.88;;;;;;;;;;5035329;28;20557;-73
2023/03/28 00:39:48;;;;;;;24.33;6.13;;;;;;;;;;5039603;28;20037;-74
2023/03/28 00:42:16;;;;;;;28.43;5.60;;;;;;;;;;5041364;28;20021;-74
2023/03/28 00:44:50;;;;;;;23.60;3.92;;;;;;;;;;5035774;28;20242;-73
2023/03/28 00:47:16;;;;;;;23.05;4.82;;;;;;;;;;5035539;28;20113;-74
2023/03/28 00:49:45;;;;;;;22.70;4.25;;;;;;;;;;5033923;28;20018;-73
2023/03/28 00:52:14;;;;;;;25.83;4.28;;;;;;;;;;5039126;28;20056;-73
2023/03/28 00:54:41;;;;;;;22.15;4.28;;;;;;;;;;5042418;28;20214;-73
2023/03/28 00:57:07;;;;;;;19.92;3.85;;;;;;;;;;5035688;28;20123;-73
2023/03/28 00:59:34;;;;;;;25.10;4.70;;;;;;;;;;5040925;28;20075;-73
2023/03/28 01:02:00;;;;;;;16.88;3.72;;;;;;;;;;5037654;28;20516;-73
2023/03/28 01:04:36;;;;;;;17.35;3.63;;;;;;;;;;5037427;28;20033;-73
2023/03/28 01:07:02;;;;;;;27.83;5.10;;;;;;;;;;5041325;28;20897;-73
2023/03/28 01:09:29;;;;;;;26.98;5.30;;;;;;;;;;5042558;28;20618;-73
2023/03/28 01:11:56;;;;;;;17.98;3.47;;;;;;;;;;5044481;28;20043;-73
2023/03/28 01:14:23;;;;;;;23.02;3.40;;;;;;;;;;5044300;28;20037;-73
2023/03/28 01:16:50;;;;;;;25.27;3.83;;;;;;;;;;5043341;28;20044;-73
2023/03/28 01:19:20;;;;;;;25.00;4.55;;;;;;;;;;5041375;28;20037;-73
2023/03/28 01:21:55;;;;;;;22.73;4.68;;;;;;;;;;5039766;28;20028;-73
2023/03/28 01:24:48;;;;;;;21.75;3.88;;;;;;;;;;5043935;28;20048;-73
2023/03/28 01:27:41;;;;;;;20.75;4.13;;;;;;;;;;5042246;28;20033;-73
2023/03/28 01:30:21;;;;;;;25.23;5.35;;;;;;;;;;5025784;28;20585;-73
2023/03/28 01:33:06;;;;;;;17.67;3.97;;;;;;;;;;5047383;28;20037;-73
2023/03/28 01:35:47;;;;;;;26.02;5.43;;;;;;;;;;5043101;28;20049;-73
2023/03/28 01:38:32;;;;;;;20.55;4.32;;;;;;;;;;5056682;28;20486;-73
2023/03/28 01:41:10;;;;;;;21.33;3.67;;;;;;;;;;5040915;28;20092;-73
2023/03/28 01:43:42;;;;;;;23.75;5.10;;;;;;;;;;5039167;28;20608;-73
2023/03/28 01:46:08;;;;;;;;;;;;;;;;;;5039007;28;20013;-73
2023/03/28 01:48:53;;;;;;;23.38;4.78;;;;;;;;;;5045182;28;19908;-73
2023/03/28 01:51:34;;;;;;;20.40;3.25;;;;;;;;;;5043114;28;20021;-73
2023/03/28 01:54:11;;;;;;;18.67;3.83;;;;;;;;;;5045397;28;20025;-73
2023/03/28 01:56:37;;;;;;;21.20;3.83;;;;;;;;;;5038601;28;20014;-73
2023/03/28 01:59:10;;;;;;;19.48;4.13;;;;;;;;;;5043560;28;20036;-73
2023/03/28 02:01:59;;;;;;;34.58;4.53;;;;;;;;;;5045964;28;20044;-73
2023/03/28 02:04:25;;;;;;;19.23;3.13;;;;;;;;;;5042033;28;20061;-73
2023/03/28 02:06:53;;;;;;;19.63;4.40;;;;;;;;;;5042726;28;20067;-73
2023/03/28 02:09:22;;;;;;;23.67;4.60;;;;;;;;;;5041011;28;20033;-73
2023/03/28 02:11:50;;;;;;;20.73;3.00;;;;;;;;;;5048183;28;20473;-73
2023/03/28 02:14:18;;;;;;;31.40;4.68;;;;;;;;;;5050137;28;20029;-73
2023/03/28 02:16:45;;;;;;;17.30;3.50;;;;;;;;;;5042988;28;20512;-73
2023/03/28 02:19:12;;;;;;;19.42;3.83;;;;;;;;;;5047723;28;20119;-73
2023/03/28 02:21:45;;;;;;;13.82;2.70;;;;;;;;;;5044435;28;20109;-73
2023/03/28 02:24:11;;;;;;;14.63;3.78;;;;;;;;;;5049030;28;20451;-73
2023/03/28 02:26:37;;;;;;;18.05;2.83;;;;;;;;;;5048489;28;20021;-73
2023/03/28 02:29:05;;;;;;;14.52;3.03;;;;;;;;;;5042280;28;21928;-73
2023/03/28 02:31:31;;;;;;;12.80;3.00;;;;;;;;;;5036331;28;20387;-71
2023/03/28 02:33:58;;;;;;;24.98;3.25;;;;;;;;;;5042274;28;20047;-73
2023/03/28 02:36:24;;;;;;;19.58;3.10;;;;;;;;;;5041178;28;20056;-73
2023/03/28 02:38:59;;;;;;;18.65;3.58;;;;;;;;;;5042032;28;20086;-73
2023/03/28 02:41:33;;;;;;;18.35;4.20;;;;;;;;;;5041387;28;20021;-73
2023/03/28 02:44:04;;;;;;;19.80;3.08;;;;;;;;;;5045021;28;20024;-73
2023/03/28 02:46:36;;;;;;;17.67;4.15;;;;;;;;;;5038162;28;20017;-73
2023/03/28 02:49:02;;;;;;;13.77;3.63;;;;;;;;;;5038547;28;20623;-73
2023/03/28 02:51:41;;;;;;;16.70;3.95;;;;;;;;;;5044853;28;20044;-72
2023/03/28 02:54:10;;;;;;;16.60;3.63;;;;;;;;;;5043337;28;20413;-73
2023/03/28 02:56:44;;;;;;;26.05;3.35;;;;;;;;;;5049181;28;20021;-73
2023/03/28 02:59:27;;;;;;;13.65;2.40;;;;;;;;;;5044473;28;20016;-73
2023/03/28 03:01:53;;;;;;;18.65;4.38;;;;;;;;;;5040257;28;20364;-73
2023/03/28 03:04:19;;;;;;;21.35;3.67;;;;;;;;;;5042041;28;20025;-73
2023/03/28 03:06:47;;;;;;;13.93;2.97;;;;;;;;;;5045095;28;20013;-73
2023/03/28 03:09:13;;;;;;;17.00;3.25;;;;;;;;;;5047846;28;20032;-73
2023/03/28 03:11:40;;;;;;;20.38;3.13;;;;;;;;;;5046463;28;20079;-73
2023/03/28 03:14:06;;;;;;;20.00;4.10;;;;;;;;;;5043856;28;20243;-73
2023/03/28 03:16:33;;;;;;;16.38;3.30;;;;;;;;;;5041417;28;20049;-73
2023/03/28 03:18:59;;;;;;;19.48;3.50;;;;;;;;;;5040699;28;20048;-73
2023/03/28 03:21:26;;;;;;;19.75;3.97;;;;;;;;;;5036268;28;20778;-73
2023/03/28 03:23:52;;;;;;;17.33;3.35;;;;;;;;;;5047125;28;20060;-73
2023/03/28 03:26:18;;;;;;;16.23;3.45;;;;;;;;;;5036055;28;20039;-73
2023/03/28 03:28:44;;;;;;;31.20;3.22;;;;;;;;;;5040600;28;20112;-73
2023/03/28 03:31:11;;;;;;;22.08;3.40;;;;;;;;;;5039151;28;20287;-73
2023/03/28 03:33:37;;;;;;;14.65;3.42;;;;;;;;;;5040961;28;20036;-73
2023/03/28 03:36:04;;;;;;;26.40;3.75;;;;;;;;;;5042404;28;20028;-73
2023/03/28 03:38:30;;;;;;;15.65;3.22;;;;;;;;;;5044419;28;20032;-73
2023/03/28 03:40:56;;;;;;;13.32;3.00;;;;;;;;;;5037497;28;20101;-74
2023/03/28 03:43:22;;;;;;;12.05;2.90;;;;;;;;;;5041327;28;20064;-73
2023/03/28 03:45:48;;;;;;;14.65;2.83;;;;;;;;;;5035172;28;20071;-72
2023/03/28 03:48:15;;;;;;;19.92;3.17;;;;;;;;;;5046491;28;20028;-73
2023/03/28 03:50:41;;;;;;;21.50;4.18;;;;;;;;;;5036993;28;20387;-74
2023/03/28 03:53:07;;;;;;;15.50;2.83;;;;;;;;;;5041441;28;20079;-73
2023/03/28 03:55:33;;;;;;;14.00;2.80;;;;;;;;;;5040127;28;20557;-74
2023/03/28 03:58:01;;;;;;;14.50;2.70;;;;;;;;;;5038522;28;20039;-74
2023/03/28 04:00:28;;;;;;;15.15;2.97;;;;;;;;;;5041784;28;20690;-73
2023/03/28 04:02:54;;;;;;;17.48;2.90;;;;;;;;;;5041053;28;20628;-73
2023/03/28 04:05:20;;;;;;;21.75;5.03;;;;;;;;;;5041571;28;20493;-73
2023/03/28 04:07:47;;;;;;;16.55;3.08;;;;;;;;;;5040753;28;20052;-73
2023/03/28 04:10:13;;;;;;;18.55;4.03;;;;;;;;;;5038840;28;20043;-74
2023/03/28 04:12:39;;;;;;;14.27;3.10;;;;;;;;;;5040630;28;20541;-73
2023/03/28 04:15:06;;;;;;;14.65;3.08;;;;;;;;;;5036986;28;20029;-73
2023/03/28 04:17:33;;;;;;;15.75;2.83;;;;;;;;;;5043927;28;20206;-73
2023/03/28 04:20:33;;;;;;;20.67;3.63;;;;;;;;;;5040138;28;20113;-73
2023/03/28 04:22:53;;;;;;;14.43;2.95;;;;;;;;;;5032581;28;20033;-73
2023/03/28 04:25:23;;;;;;;19.67;3.30;;;;;;;;;;5036880;28;20123;-74
2023/03/28 04:27:53;;;;;;;19.52;2.97;;;;;;;;;;5039975;28;20032;-74
2023/03/28 04:30:20;;;;;;;16.23;3.03;;;;;;;;;;5040352;28;20021;-73
2023/03/28 04:32:53;;;;;;;13.93;3.17;;;;;;;;;;5042034;28;20059;-73
2023/03/28 04:35:19;;;;;;;18.20;3.75;;;;;;;;;;5039620;28;20040;-73
2023/03/28 04:37:46;;;;;;;16.77;3.08;;;;;;;;;;5039482;28;20033;-73
2023/03/28 04:40:15;;;;;;;13.35;2.97;;;;;;;;;;5037450;28;20113;-72
2023/03/28 04:42:41;;;;;;;14.20;3.05;;;;;;;;;;5036624;28;20025;-73
2023/03/28 04:45:08;;;;;;;16.27;2.83;;;;;;;;;;5038637;28;20021;-73
2023/03/28 04:47:36;;;;;;;15.95;3.10;;;;;;;;;;5036479;28;20532;-73
2023/03/28 04:50:03;;;;;;;15.18;2.92;;;;;;;;;;5039150;28;20067;-73
2023/03/28 04:52:29;;;;;;;17.35;2.90;;;;;;;;;;5035824;28;20098;-73
2023/03/28 04:54:55;;;;;;;18.58;3.30;;;;;;;;;;5040485;28;20024;-73
2023/03/28 04:57:22;;;;;;;16.92;2.88;;;;;;;;;;5040844;28;20062;-73
2023/03/28 04:59:48;;;;;;;13.35;3.25;;;;;;;;;;5036942;28;20078;-73
2023/03/28 05:02:15;;;;;;;18.60;3.40;;;;;;;;;;5036522;28;20047;-73
2023/03/28 05:04:41;;;;;;;19.83;2.88;;;;;;;;;;5043526;28;20050;-73
2023/03/28 05:07:07;;;;;;;12.60;2.40;;;;;;;;;;5042655;28;20385;-73
2023/03/28 05:09:33;;;;;;;17.67;3.47;;;;;;;;;;5034879;28;20023;-73
2023/03/28 05:11:59;;;;;;;18.05;3.25;;;;;;;;;;5031929;28;20037;-73
2023/03/28 05:14:26;;;;;;;17.48;3.35;;;;;;;;;;5036442;28;20029;-73
2023/03/28 05:16:52;;;;;;;15.32;2.70;;;;;;;;;;5043689;28;20048;-73
2023/03/28 05:19:19;;;;;;;12.45;2.97;;;;;;;;;;5040271;28;20033;-73
2023/03/28 05:21:46;;;;;;;14.38;4.07;;;;;;;;;;5037380;28;20029;-72
2023/03/28 05:24:12;;;;;;;13.85;2.92;;;;;;;;;;5041599;28;20037;-72
2023/03/28 05:26:38;;;;;;;16.95;3.30;;;;;;;;;;5038557;28;20021;-73
2023/03/28 05:29:05;;;;;;;18.95;3.00;;;;;;;;;;5039353;28;20025;-73
2023/03/28 05:31:31;;;;;;;8.82;2.95;;;;;;;;;;5041521;28;20057;-73
2023/03/28 05:33:58;;;;;;;20.88;3.28;;;;;;;;;;5035246;28;20052;-73
2023/03/28 05:36:24;;;;;;;24.08;3.53;;;;;;;;;;5040784;28;20033;-73
2023/03/28 05:38:50;;;;;;;20.23;3.70;;;;;;;;;;5047335;28;20092;-72
2023/03/28 05:41:17;;;;;;;13.45;3.50;;;;;;;;;;5047386;28;20027;-73
2023/03/28 05:43:43;;;;;;;15.13;3.13;;;;;;;;;;5043430;28;20029;-73
2023/03/28 05:46:09;;;;;;;22.58;4.60;;;;;;;;;;5042209;28;20473;-73
2023/03/28 05:48:35;;;;;;;23.40;3.55;;;;;;;;;;5042823;28;20029;-73
2023/03/28 05:51:02;;;;;;;22.40;3.15;;;;;;;;;;5047336;28;20052;-73
2023/03/28 05:53:28;;;;;;;18.42;2.65;;;;;;;;;;5041395;28;20131;-73
2023/03/28 05:55:54;;;;;;;15.32;2.95;;;;;;;;;;5041962;28;20025;-73
2023/03/28 05:58:20;;;;;;;20.52;4.75;;;;;;;;;;5042506;28;20024;-73
2023/03/28 06:00:46;;;;;;;17.17;3.30;;;;;;;;;;5047213;28;20020;-73
2023/03/28 06:03:14;;;;;;;17.52;3.30;;;;;;;;;;5041249;28;20029;-73
2023/03/28 06:05:40;;;;;;;15.07;3.00;;;;;;;;;;5047075;28;20024;-73
2023/03/28 06:08:08;;;;;;;22.27;3.63;;;;;;;;;;5040889;28;20021;-73
2023/03/28 06:10:35;;;;;;;17.80;3.58;;;;;;;;;;5038208;28;20028;-74
2023/03/28 06:13:01;;;;;;;18.08;3.83;;;;;;;;;;5044229;28;20040;-73
2023/03/28 06:15:27;;;;;;;15.85;3.25;;;;;;;;;;5045091;28;20025;-74
2023/03/28 06:17:54;;;;;;;19.10;2.63;;;;;;;;;;5043134;28;20666;-73
2023/03/28 06:20:20;;;;;;;19.40;3.25;;;;;;;;;;5050919;28;20017;-73
2023/03/28 06:22:46;;;;;;;16.30;2.97;;;;;;;;;;5045758;28;20032;-73
2023/03/28 06:25:12;;;;;;;12.57;3.17;;;;;;;;;;5039167;28;20089;-73
2023/03/28 06:27:38;;;;;;;15.68;2.90;;;;;;;;;;5045419;28;20139;-73
2023/03/28 06:30:05;;;;;;;14.13;3.25;;;;;;;;;;5048813;28;20100;-72
2023/03/28 06:32:32;;;;;;;16.55;3.03;;;;;;;;;;5048264;28;20045;-73
2023/03/28 06:34:58;;;;;;;18.40;3.22;;;;;;;;;;5037111;28;20115;-73
2023/03/28 06:37:24;;;;;;;11.73;2.38;;;;;;;;;;5044253;28;20115;-72
2023/03/28 06:39:51;;;;;;;11.77;2.50;;;;;;;;;;5042465;28;20032;-73
2023/03/28 06:42:18;;;;;;;20.77;3.00;;;;;;;;;;5049076;28;20017;-73
2023/03/28 06:44:44;;;;;;;12.48;2.60;;;;;;;;;;5029854;28;20099;-73
2023/03/28 06:47:10;;;;;;;20.40;3.05;;;;;;;;;;5044563;28;20112;-74
2023/03/28 06:49:36;;;;;;;11.20;3.03;;;;;;;;;;5042214;28;20040;-73
2023/03/28 06:52:03;;;;;;;14.23;3.83;;;;;;;;;;5045841;28;20024;-73
2023/03/28 06:54:29;;;;;;;10.18;2.53;;;;;;;;;;5041487;28;20052;-72
2023/03/28 06:56:55;;;;;;;13.43;2.72;;;;;;;;;;5046779;28;20025;-73
2023/03/28 06:59:21;;;;;;;13.52;3.10;;;;;;;;;;5044388;28;20453;-73
2023/03/28 07:01:47;;;;;;;19.70;3.08;;;;;;;;;;5043905;28;20096;-73
2023/03/28 07:04:13;;;;;;;17.98;2.60;;;;;;;;;;5044309;28;20020;-73
2023/03/28 07:06:40;;;;;;;20.30;3.17;;;;;;;;;;5041986;28;20013;-73
2023/03/28 07:09:06;;;;;;;14.07;2.40;;;;;;;;;;5046106;28;20082;-75
2023/03/28 07:11:32;;;;;;;18.08;2.70;;;;;;;;;;5055931;28;20055;-73
2023/03/28 07:13:58;;;;;;;14.40;2.97;;;;;;;;;;5041946;28;20039;-73
2023/03/28 07:16:25;;;;;;;11.07;2.45;;;;;;;;;;5042836;28;20049;-73
2023/03/28 07:18:51;;;;;;;15.45;3.13;;;;;;;;;;5043665;28;20100;-74
2023/03/28 07:21:17;;;;;;;16.00;3.00;;;;;;;;;;5041525;28;20381;-73
2023/03/28 07:23:44;;;;;;;17.77;3.33;;;;;;;;;;5046392;28;20107;-72
2023/03/28 07:26:10;;;;;;;15.85;3.53;;;;;;;;;;5046070;28;20021;-72
2023/03/28 07:28:37;;;;;;;12.68;2.70;;;;;;;;;;5043238;28;20075;-73
2023/03/28 07:31:04;;;;;;;17.02;3.15;;;;;;;;;;5046774;28;20048;-73
2023/03/28 07:33:34;;;;;;;13.55;3.30;;;;;;;;;;5044625;28;20643;-73
2023/03/28 07:36:07;;;;;;;16.77;3.10;;;;;;;;;;5040291;28;20082;-73
2023/03/28 07:38:34;;;;;;;14.90;3.22;;;;;;;;;;5048590;28;20019;-73
2023/03/28 07:41:00;;;;;;;19.60;3.10;;;;;;;;;;5041191;28;20025;-73
2023/03/28 07:43:26;;;;;;;22.58;3.20;;;;;;;;;;5041333;28;20021;-73
2023/03/28 07:45:58;;;;;;;15.73;3.10;;;;;;;;;;5044488;28;20104;-73
2023/03/28 07:48:25;;;;;;;15.75;2.58;;;;;;;;;;5042915;28;20024;-73
2023/03/28 07:50:51;;;;;;;16.63;3.20;;;;;;;;;;5040719;28;20111;-73
2023/03/28 07:53:17;;;;;;;16.17;4.13;;;;;;;;;;5046253;28;20035;-73
2023/03/28 07:55:44;;;;;;;14.23;3.03;;;;;;;;;;5046740;28;20074;-73
2023/03/28 07:58:10;;;;;;;15.98;2.85;;;;;;;;;;5042126;28;20040;-73
2023/03/28 08:00:36;;;;;;;17.50;3.42;;;;;;;;;;5044723;28;20499;-73
2023/03/28 08:03:03;;;;;;;19.98;3.40;;;;;;;;;;5041407;28;20043;-73
2023/03/28 08:05:32;;;;;;;22.73;3.20;;;;;;;;;;5043771;28;20027;-73
2023/03/28 08:07:59;;;;;;;18.38;3.17;;;;;;;;;;5043813;28;20075;-74
2023/03/28 08:10:25;;;;;;;14.80;3.13;;;;;;;;;;5040922;28;20412;-72
2023/03/28 08:12:51;;;;;;;14.43;2.80;;;;;;;;;;5038361;28;20028;-73
2023/03/28 08:15:17;;;;;;;19.73;3.50;;;;;;;;;;5037211;28;20032;-73
2023/03/28 08:17:43;;;;;;;17.65;3.83;;;;;;;;;;5045603;28;20100;-73
2023/03/28 08:20:10;;;;;;;20.85;3.50;;;;;;;;;;5050979;28;20038;-72
2023/03/28 08:22:36;;;;;;;16.92;3.15;;;;;;;;;;5044568;28;20588;-73
2023/03/28 08:25:03;;;;;;;15.85;3.05;;;;;;;;;;5044112;28;20024;-73
2023/03/28 08:27:29;;;;;;;18.73;3.05;;;;;;;;;;5049093;28;20028;-73
2023/03/28 08:29:56;;;;;;;21.77;3.08;;;;;;;;;;5040431;28;20032;-72
2023/03/28 08:32:22;;;;;;;21.15;3.60;;;;;;;;;;5040662;28;20037;-73
2023/03/28 08:34:49;;;;;;;23.35;3.78;;;;;;;;;;5040826;28;20117;-73
2023/03/28 08:37:15;;;;;;;13.70;2.90;;;;;;;;;;5047573;28;20451;-73
2023/03/28 08:39:41;;;;;;;21.27;4.05;;;;;;;;;;5041214;28;20113;-73
2023/03/28 08:42:26;;;;;;;17.60;3.03;;;;;;;;;;5049033;28;20029;-73
2023/03/28 08:44:55;;;;;;;19.73;3.83;;;;;;;;;;5039658;28;20063;-73
2023/03/28 08:47:27;;;;;;;12.52;3.38;;;;;;;;;;5042021;28;20028;-73
2023/03/28 08:49:56;;;;;;;18.98;3.28;;;;;;;;;;5043650;28;20528;-73
2023/03/28 08:52:23;;;;;;;19.50;4.45;;;;;;;;;;5040945;28;20445;-73
2023/03/28 08:55:00;;;;;;;19.08;4.43;;;;;;;;;;5044385;28;20112;-73
2023/03/28 08:57:28;;;;;;;20.05;4.05;;;;;;;;;;5040541;28;20052;-73
2023/03/28 09:00:12;;;;;;;23.00;3.25;;;;;;;;;;5041162;28;20021;-72
2023/03/28 09:02:39;;;;;;;17.13;3.47;;;;;;;;;;5040567;28;20032;-72
2023/03/28 09:05:06;;;;;;;18.00;3.55;;;;;;;;;;5043685;28;20027;-73
2023/03/28 09:07:36;;;;;;;21.27;3.65;;;;;;;;;;5040967;28;20025;-72
2023/03/28 09:10:02;;;;;;;16.45;4.03;;;;;;;;;;5041426;28;20104;-73
2023/03/28 09:12:31;;;;;;;17.55;3.20;;;;;;;;;;5045343;28;20032;-73
2023/03/28 09:15:05;;;;;;;18.60;3.75;;;;;;;;;;5048619;28;20013;-73
2023/03/28 09:17:40;;;;;;;20.73;3.90;;;;;;;;;;5044661;28;20056;-73
2023/03/28 09:20:19;;;;;;;20.15;4.28;;;;;;;;;;5050128;28;20016;-74
2023/03/28 09:23:06;;;;;;;20.23;3.22;;;;;;;;;;5046949;28;20446;-73
2023/03/28 09:25:38;;;;;;;14.52;2.55;;;;;;;;;;5051989;28;20083;-73
2023/03/28 09:28:04;;;;;;;;;;;;;;;;;;5049809;28;20021;-73
2023/03/28 09:30:56;;;;;;;12.73;3.60;;;;;;;;;;5047078;28;20011;-73
2023/03/28 09:33:34;;;;;;;19.35;2.67;;;;;;;;;;5044678;28;20036;-73
2023/03/28 09:36:01;;;;;;;19.23;3.42;;;;;;;;;;5044621;28;20033;-73
2023/03/28 09:38:33;;;;;;;18.27;3.88;;;;;;;;;;5043507;28;20100;-73
2023/03/28 09:41:02;;;;;;;21.88;3.47;;;;;;;;;;5041598;28;20199;-73
2023/03/28 09:43:35;;;;;;;18.98;2.75;;;;;;;;;;5042770;28;20150;-73
2023/03/28 09:46:06;;;;;;;11.60;2.53;;;;;;;;;;5046640;28;20075;-73
2023/03/28 09:48:33;;;;;;;21.48;3.40;;;;;;;;;;5046831;28;20037;-74
2023/03/28 09:51:00;;;;;;;18.60;3.55;;;;;;;;;;5047406;28;20124;-73
2023/03/28 09:53:31;;;;;;;23.08;3.00;;;;;;;;;;5043237;28;20033;-73
2023/03/28 09:56:02;;;;;;;17.60;3.23;;;;;;;;;;5050519;28;20021;-73
2023/03/28 09:58:28;;;;;;;14.93;2.78;;;;;;;;;;5048378;28;20079;-73
2023/03/28 10:00:55;;;;;;;15.35;2.58;;;;;;;;;;5044338;28;20048;-73
2023/03/28 10:03:28;;;;;;;10.02;2.25;;;;;;;;;;5047991;28;20025;-73
2023/03/28 10:05:55;;;;;;;11.82;2.35;;;;;;;;;;5053262;28;20082;-73
2023/03/28 10:08:26;;;;;;;13.02;2.45;;;;;;;;;;5048782;28;20864;-75
2023/03/28 10:10:56;;;;;;;15.50;2.80;;;;;;;;;;5052039;28;20051;-73
2023/03/28 10:13:22;;;;;;;12.75;2.97;;;;;;;;;;5051455;28;20230;-73
2023/03/28 10:15:49;;;;;;;9.40;2.33;;;;;;;;;;5052428;28;20105;-73
2023/03/28 10:18:25;;;;;;;12.40;2.47;;;;;;;;;;5038973;28;20086;-73
2023/03/28 10:20:51;;;;;;;12.90;2.58;;;;;;;;;;5050099;28;20021;-74
2023/03/28 10:23:17;;;;;;;18.80;2.65;;;;;;;;;;5049017;28;20471;-73
2023/03/28 10:25:45;;;;;;;19.73;2.63;;;;;;;;;;5053706;28;20461;-72
2023/03/28 10:28:37;;;;;;;14.05;2.50;;;;;;;;;;5051782;28;20037;-73
2023/03/28 10:31:04;;;;;;;10.00;2.45;;;;;;;;;;5043666;28;20032;-72
2023/03/28 10:33:34;;;;;;;10.80;2.20;;;;;;;;;;5042947;28;20037;-73
2023/03/28 10:36:01;;;;;;;9.63;1.85;;;;;;;;;;5048642;28;20033;-73
2023/03/28 10:38:32;;;;;;;9.30;2.22;;;;;;;;;;5043455;28;20493;-73
2023/03/28 10:40:58;;;;;;;11.33;2.70;;;;;;;;;;5039195;28;20028;-74
2023/03/28 10:43:30;;;;;;;17.00;2.90;;;;;;;;;;5046150;28;20374;-73
2023/03/28 10:45:59;;;;;;;10.23;2.35;;;;;;;;;;5040415;28;20389;-72
2023/03/28 10:48:28;;;;;;;11.93;2.15;;;;;;;;;;5041943;28;20021;-73
2023/03/28 10:50:56;;;;;;;8.95;2.15;;;;;;;;;;5042704;28;20106;-73
2023/03/28 10:53:31;;;;;;;12.45;2.03;;;;;;;;;;5043391;28;20640;-73
2023/03/28 10:56:00;;;;;;;17.17;2.03;;;;;;;;;;5041910;28;20128;-73
2023/03/28 10:58:30;;;;;;;8.65;2.25;;;;;;;;;;5042626;28;20802;-73
2023/03/28 11:01:05;;;;;;;13.82;2.67;;;;;;;;;;5042303;28;20435;-73
2023/03/28 11:03:40;;;;;;;10.65;1.90;;;;;;;;;;5039466;28;20074;-73
2023/03/28 11:06:12;;;;;;;9.35;1.90;;;;;;;;;;5041439;28;20086;-72
2023/03/28 11:09:02;;;;;;;12.35;2.00;;;;;;;;;;5047031;28;20024;-73
2023/03/28 11:11:35;;;;;;;9.20;1.77;;;;;;;;;;5037784;28;20052;-73
2023/03/28 11:14:07;;;;;;;9.07;1.58;;;;;;;;;;5041198;28;20075;-73
2023/03/28 11:16:53;;;;;;;8.93;2.13;;;;;;;;;;5041858;28;20052;-73
2023/03/28 11:19:25;;;;;;;9.82;2.10;;;;;;;;;;5042650;28;20036;-73
2023/03/28 11:21:58;;;;;;;12.80;1.50;;;;;;;;;;5041705;28;20029;-73
2023/03/28 11:24:27;;;;;;;12.88;2.67;;;;;;;;;;5039927;28;20035;-73
2023/03/28 11:26:53;;;;;;;10.50;1.85;;;;;;;;;;5037746;28;20122;-73
2023/03/28 11:29:25;;;;;;;11.68;2.47;;;;;;;;;;5046324;28;20078;-74
2023/03/28 11:32:23;;;;;;;6.30;1.88;;;;;;;;;;5047353;28;20721;-73
2023/03/28 11:34:55;;;;;;;11.20;1.75;;;;;;;;;;5008669;28;20041;-73
2023/03/28 11:37:21;;;;;;;;;;;;;;;;;;5035978;28;20032;-73
2023/03/28 11:39:59;;;;;;;8.48;1.90;;;;;;;;;;5040127;28;20450;-73
2023/03/28 11:42:30;;;;;;;5.78;1.75;;;;;;;;;;5038864;28;20078;-72
2023/03/28 11:45:02;;;;;;;6.90;1.48;;;;;;;;;;5038648;28;20110;-73
2023/03/28 11:47:28;;;;;;;;;;;;;;;;;;5035518;28;20580;-72
2023/03/28 11:50:15;;;;;;;7.13;1.33;;;;;;;;;;5038160;28;19966;-73
2023/03/28 11:52:54;;;;;;;7.28;1.92;;;;;;;;;;5041638;28;20044;-73
2023/03/28 11:55:20;;;;;;;3.53;1.25;;;;;;;;;;5043875;28;21002;-73
2023/03/28 11:57:53;;;;;;;5.70;1.02;;;;;;;;;;5037315;28;20079;-73
2023/03/28 12:00:27;;;;;;;1.98;0.80;;;;;;;;;;5040872;28;20029;-73
2023/03/28 12:03:06;;;;;;;4.18;0.65;;;;;;;;;;5031664;28;20063;-73
2023/03/28 12:05:36;;;;;;;8.50;2.45;;;;;;;;;;5041632;28;20035;-73
2023/03/28 12:08:13;;;;;;;6.38;1.10;;;;;;;;;;5046038;28;20036;-73
2023/03/28 12:10:42;;;;;;;2.47;1.00;;;;;;;;;;5041979;28;20029;-73
2023/03/28 12:13:14;;;;;;;6.03;1.60;;;;;;;;;;5041053;28;20839;-73
2023/03/28 12:15:43;;;;;;;7.10;1.15;;;;;;;;;;5043780;28;20105;-73
2023/03/28 12:18:14;;;;;;;10.57;1.50;;;;;;;;;;5038649;28;20049;-73
2023/03/28 12:20:50;;;;;;;7.03;1.00;;;;;;;;;;5042088;28;20729;-73
2023/03/28 12:23:23;;;;;;;4.90;1.02;;;;;;;;;;5039496;28;20029;-73
2023/03/28 12:25:54;;;;;;;6.05;1.40;;;;;;;;;;5038219;28;20522;-73
2023/03/28 12:28:23;;;;;;;6.30;1.17;;;;;;;;;;5045440;28;20040;-73
2023/03/28 12:30:57;;;;;;;5.75;1.15;;;;;;;;;;5048842;28;20440;-73
2023/03/28 12:33:32;;;;;;;9.27;1.10;;;;;;;;;;5043205;28;20052;-73
2023/03/28 12:36:24;;;;;;;4.30;1.15;;;;;;;;;;5045225;28;20013;-73
2023/03/28 12:38:56;;;;;;;7.60;1.80;;;;;;;;;;5032261;28;20033;-73
2023/03/28 12:41:28;;;;;;;14.05;1.55;;;;;;;;;;5039807;28;20130;-73
2023/03/28 12:43:54;;;;;;;3.50;0.90;;;;;;;;;;5038809;28;20025;-73
2023/03/28 12:46:23;;;;;;;7.15;1.00;;;;;;;;;;5041763;28;20040;-73
2023/03/28 12:48:53;;;;;;;7.43;1.75;;;;;;;;;;5043478;28;20021;-73
2023/03/28 12:51:24;;;;;;;3.92;1.10;;;;;;;;;;5046051;28;20025;-74
2023/03/28 12:54:01;;;;;;;4.93;1.30;;;;;;;;;;5041124;28;20032;-73
2023/03/28 12:56:28;;;;;;;5.50;1.15;;;;;;;;;;5044070;28;20379;-73
2023/03/28 12:58:54;;;;;;;3.92;1.10;;;;;;;;;;5043316;28;20389;-74
2023/03/28 13:01:34;;;;;;;4.90;1.13;;;;;;;;;;5040485;28;20506;-73
2023/03/28 13:04:03;;;;;;;2.10;1.08;;;;;;;;;;5041368;28;20060;-73
2023/03/28 13:06:40;;;;;;;7.47;1.48;;;;;;;;;;5042467;28;20025;-74
2023/03/28 13:09:07;;;;;;;3.60;0.90;;;;;;;;;;5048390;28;20025;-73
2023/03/28 13:11:44;;;;;;;6.07;0.93;;;;;;;;;;5039858;28;20029;-73
2023/03/28 13:14:24;;;;;;;6.97;1.23;;;;;;;;;;5040327;28;20033;-73
2023/03/28 13:16:58;;;;;;;2.92;1.10;;;;;;;;;;5045706;28;20120;-73
2023/03/28 13:19:54;;;;;;;7.40;1.27;;;;;;;;;;5038221;28;20699;-74
2023/03/28 13:22:25;;;;;;;2.55;0.80;;;;;;;;;;5034008;28;20037;-73
2023/03/28 13:24:52;;;;;;;6.55;1.15;;;;;;;;;;5035146;28;20032;-73
2023/03/28 13:27:29;;;;;;;3.42;0.85;;;;;;;;;;5038568;28;20032;-73
2023/03/28 13:30:02;;;;;;;6.35;1.02;;;;;;;;;;5041943;28;20035;-73
2023/03/28 13:32:32;;;;;;;3.17;0.90;;;;;;;;;;5039794;28;20045;-73
2023/03/28 13:35:03;;;;;;;4.22;0.85;;;;;;;;;;5034336;28;20086;-74
2023/03/28 13:37:41;;;;;;;6.35;1.38;;;;;;;;;;5047189;28;20033;-73
2023/03/28 13:40:27;;;;;;;5.68;1.17;;;;;;;;;;5042279;28;20509;-73
2023/03/28 13:42:57;;;;;;;5.25;1.40;;;;;;;;;;5039175;28;20029;-73
2023/03/28 13:45:24;;;;;;;2.78;0.98;;;;;;;;;;5041327;28;20067;-73
2023/03/28 13:47:51;;;;;;;6.47;1.20;;;;;;;;;;5041237;28;20029;-73
2023/03/28 13:50:28;;;;;;;4.30;1.40;;;;;;;;;;5038956;28;20276;-73
2023/03/28 13:52:54;;;;;;;6.28;1.40;;;;;;;;;;5039456;28;20526;-73
2023/03/28 13:55:22;;;;;;;4.85;1.02;;;;;;;;;;5039161;28;20380;-73
2023/03/28 13:57:49;;;;;;;6.45;1.30;;;;;;;;;;5035020;28;20029;-73
2023/03/28 14:00:19;;;;;;;4.47;1.02;;;;;;;;;;5039673;28;20021;-77
2023/03/28 14:02:49;;;;;;;5.88;1.27;;;;;;;;;;5046103;28;20017;-73
2023/03/28 14:05:18;;;;;;;4.97;1.33;;;;;;;;;;5045406;28;20568;-74
2023/03/28 14:07:44;;;;;;;2.65;0.82;;;;;;;;;;5042442;28;20104;-73
2023/03/28 14:10:20;;;;;;;10.27;1.60;;;;;;;;;;5043969;28;20060;-76
2023/03/28 14:12:47;;;;;;;13.82;1.60;;;;;;;;;;5046961;28;20599;-73
2023/03/28 14:15:16;;;;;;;5.90;1.30;;;;;;;;;;5044973;28;20067;-73
2023/03/28 14:17:42;;;;;;;5.68;1.67;;;;;;;;;;5043555;28;20462;-75
2023/03/28 14:20:15;;;;;;;5.18;1.20;;;;;;;;;;5037034;28;20044;-73
2023/03/28 14:22:43;;;;;;;8.35;1.50;;;;;;;;;;5043309;28;20021;-75
2023/03/28 14:25:12;;;;;;;7.28;1.52;;;;;;;;;;5041609;28;20031;-74
2023/03/28 14:27:40;;;;;;;7.00;1.30;;;;;;;;;;5042151;28;20022;-73
2023/03/28 14:30:19;;;;;;;8.60;1.38;;;;;;;;;;5041200;28;20033;-74
2023/03/28 14:33:06;;;;;;;5.28;1.30;;;;;;;;;;5042843;28;20037;-73
2023/03/28 14:35:33;;;;;;;4.97;1.67;;;;;;;;;;5045598;28;20555;-74
2023/03/28 14:38:15;;;;;;;3.45;1.40;;;;;;;;;;5044606;28;20091;-73
2023/03/28 14:40:43;;;;;;;5.47;1.05;;;;;;;;;;5042535;28;20032;-74
2023/03/28 14:43:11;;;;;;;4.30;1.05;;;;;;;;;;5038903;28;20108;-73
2023/03/28 14:45:39;;;;;;;8.25;1.50;;;;;;;;;;5045522;28;20036;-73
2023/03/28 14:48:07;;;;;;;2.20;1.00;;;;;;;;;;5039501;28;20108;-74